createdAt,value
2023-03-17T00:03:01.384Z,-63
2023-03-17T00:08:02.566Z,-63
2023-03-17T00:13:03.852Z,-64
2023-03-17T00:18:05.028Z,-64
2023-03-17T00:23:06.242Z,-63
2023-03-17T00:28:08.037Z,-63
2023-03-17T00:33:09.271Z,-64
2023-03-17T00:38:10.457Z,-63
2023-03-17T00:43:11.732Z,-63
2023-03-17T00:48:13.394Z,-63
2023-03-17T00:53:14.860Z,-64
2023-03-17T00:58:16.139Z,-64
2023-03-17T01:03:17.309Z,-64
2023-03-17T01:08:18.478Z,-64
2023-03-17T01:13:19.670Z,-63
2023-03-17T01:18:21.264Z,-64
2023-03-17T01:23:22.557Z,-64
2023-03-17T01:28:24.451Z,-64
2023-03-17T01:33:26.408Z,-63
2023-03-17T01:38:27.554Z,-63
2023-03-17T01:43:29.325Z,-63
2023-03-17T01:48:31.439Z,-63
2023-03-17T01:53:33.560Z,-63
2023-03-17T01:58:35.323Z,-63
2023-03-17T02:03:36.493Z,-64
2023-03-17T02:08:37.647Z,-64
2023-03-17T02:13:38.945Z,-63
2023-03-17T02:18:40.205Z,-64
2023-03-17T02:23:41.451Z,-63
2023-03-17T02:28:45.902Z,-63
2023-03-17T02:33:47.150Z,-64
2023-03-17T02:38:48.365Z,-63
2023-03-17T02:43:49.631Z,-63
2023-03-17T02:48:50.841Z,-63
2023-03-17T02:53:52.078Z,-64
2023-03-17T02:58:53.259Z,-63
2023-03-17T03:03:54.465Z,-63
2023-03-17T03:08:55.758Z,-64
2023-03-17T03:13:56.916Z,-63
2023-03-17T03:18:58.359Z,-63
2023-03-17T03:23:59.531Z,-63
2023-03-17T03:29:00.858Z,-63
2023-03-17T03:34:02.074Z,-64
2023-03-17T03:39:03.254Z,-63
2023-03-17T03:44:04.513Z,-64
2023-03-17T03:49:05.734Z,-63
2023-03-17T03:54:07.114Z,-63
2023-03-17T03:59:09.689Z,-63
2023-03-17T04:04:10.869Z,-63
2023-03-17T04:09:13.289Z,-63
2023-03-17T04:14:14.865Z,-64
2023-03-17T04:19:16.325Z,-63
2023-03-17T04:24:17.597Z,-63
2023-03-17T04:29:19.003Z,-63
2023-03-17T04:34:20.241Z,-63
2023-03-17T04:39:21.464Z,-63
2023-03-17T04:44:22.614Z,-63
2023-03-17T04:49:23.825Z,-63
2023-03-17T04:54:25.141Z,-63
2023-03-17T04:59:26.726Z,-63
2023-03-17T05:04:31.516Z,-63
2023-03-17T05:09:33.149Z,-63
2023-03-17T05:14:34.403Z,-64
2023-03-17T05:19:35.904Z,-64
2023-03-17T05:24:37.069Z,-63
2023-03-17T05:29:38.693Z,-63
2023-03-17T05:34:39.896Z,-64
2023-03-17T05:39:42.033Z,-63
2023-03-17T05:44:43.228Z,-63
2023-03-17T05:49:44.472Z,-64
2023-03-17T05:54:48.831Z,-63
2023-03-17T05:59:50.989Z,-63
2023-03-17T06:04:52.243Z,-63
2023-03-17T06:09:53.761Z,-63
2023-03-17T06:14:55.081Z,-64
2023-03-17T06:19:56.310Z,-64
2023-03-17T06:24:57.487Z,-65
2023-03-17T06:30:00.273Z,-65
2023-03-17T06:35:01.524Z,-64
2023-03-17T06:40:04.393Z,-64
2023-03-17T06:45:05.585Z,-65
2023-03-17T06:50:06.759Z,-65
2023-03-17T06:55:08.542Z,-67
2023-03-17T07:00:09.695Z,-65
2023-03-17T07:05:12.550Z,-67
2023-03-17T07:10:17.215Z,-66
2023-03-17T07:15:18.928Z,-66
2023-03-17T07:20:20.132Z,-65
2023-03-17T07:25:22.418Z,-66
2023-03-17T07:30:23.567Z,-65
2023-03-17T07:35:24.837Z,-67
2023-03-17T07:40:26.661Z,-66
2023-03-17T07:45:28.009Z,-64
2023-03-17T07:50:29.342Z,-65
2023-03-17T07:55:30.735Z,-68
2023-03-17T08:00:32.523Z,-64
2023-03-17T08:05:34.359Z,-64
2023-03-17T08:10:36.120Z,-64
2023-03-17T08:15:37.571Z,-64
2023-03-17T08:20:39.066Z,-64
2023-03-17T08:25:40.259Z,-64
2023-03-17T08:30:42.366Z,-65
2023-03-17T08:35:43.722Z,-64
2023-03-17T08:40:44.894Z,-64
2023-03-17T08:45:46.199Z,-65
2023-03-17T08:50:47.414Z,-65
2023-03-17T08:55:48.664Z,-65
2023-03-17T09:00:49.953Z,-65
2023-03-17T09:05:51.387Z,-64
2023-03-17T09:10:53.083Z,-65
2023-03-17T09:15:54.357Z,-64
2023-03-17T09:20:56.411Z,-65
2023-03-17T09:25:57.592Z,-65
2023-03-17T09:30:59.143Z,-65
2023-03-17T09:36:00.601Z,-65
2023-03-17T09:41:01.848Z,-65
2023-03-17T09:46:03.208Z,-66
2023-03-17T09:51:04.983Z,-65
2023-03-17T09:56:06.567Z,-65
2023-03-17T10:01:07.742Z,-65
2023-03-17T10:06:10.466Z,-65
2023-03-17T10:11:14.781Z,-65
2023-03-17T10:16:15.997Z,-65
2023-03-17T10:21:17.250Z,-65
2023-03-17T10:26:18.512Z,-65
2023-03-17T10:31:19.926Z,-65
2023-03-17T10:36:21.401Z,-65
2023-03-17T10:41:23.061Z,-65
2023-03-17T10:46:25.062Z,-65
2023-03-17T10:51:26.410Z,-65
2023-03-17T10:56:27.681Z,-65
2023-03-17T11:01:29.345Z,-65
2023-03-17T11:06:30.594Z,-65
2023-03-17T11:11:33.114Z,-65
2023-03-17T11:16:34.666Z,-65
2023-03-17T11:21:35.923Z,-65
2023-03-17T11:26:37.310Z,-67
2023-03-17T11:31:38.480Z,-66
2023-03-17T11:36:39.721Z,-66
2023-03-17T11:41:41.689Z,-66
2023-03-17T11:46:42.936Z,-66
2023-03-17T11:51:45.234Z,-67
2023-03-17T11:56:46.422Z,-65
2023-03-17T12:01:47.633Z,-66
2023-03-17T12:06:50.601Z,-66
2023-03-17T12:11:51.864Z,-66
2023-03-17T12:16:53.042Z,-66
2023-03-17T12:21:54.399Z,-66
2023-03-17T12:26:55.782Z,-66
2023-03-17T12:31:57.003Z,-66
2023-03-17T12:36:58.144Z,-66
2023-03-17T12:41:59.750Z,-67
2023-03-17T12:47:01.178Z,-67
2023-03-17T12:52:02.844Z,-67
2023-03-17T12:57:04.070Z,-66
2023-03-17T13:02:06.036Z,-67
2023-03-17T13:07:07.313Z,-66
2023-03-17T13:12:08.677Z,-67
2023-03-17T13:17:09.847Z,-66
2023-03-17T13:22:11.573Z,-67
2023-03-17T13:27:12.927Z,-66
2023-03-17T13:32:14.439Z,-66
2023-03-17T13:37:15.602Z,-66
2023-03-17T13:42:18.723Z,-66
2023-03-17T13:47:20.430Z,-66
2023-03-17T13:52:21.822Z,-66
2023-03-17T13:57:23.026Z,-66
2023-03-17T14:02:24.819Z,-66
2023-03-17T14:07:25.984Z,-65
2023-03-17T14:12:27.220Z,-65
2023-03-17T14:17:28.441Z,-65
2023-03-17T14:22:29.619Z,-65
2023-03-17T14:27:30.910Z,-66
2023-03-17T14:32:32.270Z,-66
2023-03-17T14:37:33.606Z,-65
2023-03-17T14:42:34.789Z,-65
2023-03-17T14:47:37.197Z,-66
2023-03-17T14:52:41.095Z,-66
2023-03-17T14:57:42.326Z,-68
2023-03-17T15:02:44.223Z,-65
2023-03-17T15:07:45.585Z,-67
2023-03-17T15:12:46.805Z,-67
2023-03-17T15:17:47.935Z,-66
2023-03-17T15:22:49.289Z,-67
2023-03-17T15:27:50.644Z,-67
2023-03-17T15:32:51.977Z,-68
2023-03-17T15:37:53.210Z,-67
2023-03-17T15:42:54.377Z,-67
2023-03-17T15:47:55.633Z,-67
2023-03-17T15:52:57.065Z,-68
2023-03-17T15:57:58.319Z,-67
2023-03-17T16:02:59.621Z,-67
2023-03-17T16:08:00.772Z,-66
2023-03-17T16:13:02.008Z,-65
2023-03-17T16:18:04.058Z,-66
2023-03-17T16:23:05.261Z,-66
2023-03-17T16:28:06.400Z,-67
2023-03-17T16:33:07.598Z,-67
2023-03-17T16:38:08.998Z,-68
2023-03-17T16:43:22.549Z,-68
2023-03-17T16:48:25.919Z,-65
2023-03-17T16:53:27.115Z,-67
2023-03-17T16:58:28.313Z,-67
2023-03-17T17:03:29.579Z,-68
2023-03-17T17:08:31.011Z,-67
2023-03-17T17:13:32.440Z,-69
2023-03-17T17:18:35.445Z,-69
2023-03-17T17:23:38.597Z,-67
2023-03-17T17:28:40.402Z,-69
2023-03-17T17:33:41.606Z,-66
2023-03-17T17:38:42.959Z,-65
2023-03-17T17:43:46.053Z,-66
2023-03-17T17:48:47.472Z,-68
2023-03-17T17:53:49.886Z,-64
2023-03-17T17:58:51.192Z,-66
2023-03-17T18:03:52.440Z,-65
2023-03-17T18:08:55.172Z,-67
2023-03-17T18:13:56.380Z,-65
2023-03-17T18:18:57.780Z,-65
2023-03-17T18:23:59.517Z,-65
2023-03-17T18:29:01.150Z,-66
2023-03-17T18:34:02.345Z,-66
2023-03-17T18:39:04.100Z,-66
2023-03-17T18:44:07.312Z,-66
2023-03-17T18:49:08.950Z,-65
2023-03-17T18:54:10.968Z,-65
2023-03-17T18:59:12.125Z,-66
2023-03-17T19:04:13.456Z,-65
2023-03-17T19:09:14.654Z,-68
2023-03-17T19:14:15.860Z,-66
2023-03-17T19:19:17.511Z,-68
2023-03-17T19:24:18.803Z,-67
2023-03-17T19:29:20.140Z,-67
2023-03-17T19:34:21.407Z,-68
2023-03-17T19:39:22.594Z,-68
2023-03-17T19:44:23.811Z,-68
2023-03-17T19:49:25.037Z,-66
2023-03-17T19:54:26.269Z,-68
2023-03-17T19:59:27.430Z,-67
2023-03-17T20:04:28.673Z,-68
2023-03-17T20:09:30.917Z,-68
2023-03-17T20:14:32.430Z,-68
2023-03-17T20:19:33.744Z,-66
2023-03-17T20:24:34.904Z,-65
2023-03-17T20:29:36.410Z,-68
2023-03-17T20:34:37.660Z,-67
2023-03-17T20:39:38.900Z,-68
2023-03-17T20:44:40.092Z,-68
2023-03-17T20:49:42.477Z,-70
2023-03-17T20:54:43.758Z,-67
2023-03-17T20:59:45.238Z,-70
2023-03-17T21:04:48.068Z,-69
2023-03-17T21:09:49.280Z,-71
2023-03-17T21:14:50.648Z,-68
2023-03-17T21:19:51.861Z,-67
2023-03-17T21:24:53.090Z,-70
2023-03-17T21:29:54.271Z,-68
2023-03-17T21:34:55.618Z,-66
2023-03-17T21:39:56.833Z,-68
2023-03-17T21:44:58.031Z,-67
2023-03-17T21:49:59.169Z,-66
2023-03-17T21:55:00.363Z,-67
2023-03-17T22:00:01.591Z,-66
2023-03-17T22:05:02.711Z,-66
2023-03-17T22:10:06.914Z,-71
2023-03-17T22:15:10.155Z,-67
2023-03-17T22:20:11.364Z,-68
2023-03-17T22:25:12.560Z,-66
2023-03-17T22:30:14.501Z,-66
2023-03-17T22:35:19.123Z,-66
2023-03-17T22:40:20.356Z,-66
2023-03-17T22:45:22.165Z,-66
2023-03-17T22:50:23.319Z,-66
2023-03-17T22:55:24.633Z,-66
2023-03-17T23:00:25.800Z,-65
2023-03-17T23:05:26.993Z,-66
2023-03-17T23:10:28.572Z,-66
2023-03-17T23:15:29.773Z,-66
2023-03-17T23:20:31.281Z,-65
2023-03-17T23:25:32.665Z,-66
2023-03-17T23:30:34.442Z,-65
2023-03-17T23:35:35.932Z,-65
2023-03-17T23:40:37.154Z,-65
2023-03-17T23:45:38.832Z,-65
2023-03-17T23:50:40.922Z,-65
2023-03-17T23:55:42.096Z,-66
